Terminal Aerodrome Forecast
Issued by NWS

Home | Current Version | Previous Version | Text Only | Print | Product List | Glossary Off
Versions: 1 2 3 4 5 6 7 8 9 10 11 12 13 14 15 16 17 18 19 20 21 22

872
FTUS43 KGRB 031942 AAB
TAFMTW
TAF AMD
KMTW 031942Z 0320/0418 32012G21KT P6SM -RASN SCT015 OVC030
      TEMPO 0320/0322 2SM -SN SCT010 OVC015
     FM032300 31010KT P6SM BKN025
     FM040900 29006KT P6SM SCT030 BKN150
     FM041400 27005KT P6SM SCT015 BKN040=

USA.gov is the U.S. government's official web portal to all federal, state and local government web resources and services.